Time;durP1;ratioP1;P1;durP2;ratioP2;P2;SDS_P1;SDS_P2;PMS_P1;PMS_P2;Temp;Humidity;BMP_temperature;BMP_pressure;BME280_temperature;BME280_humidity;BME280_pressure;Samples;Min_cycle;Max_cycle;Signal;HPM_P1;HPM_P2
2023/05/07 00:00:38;;;;;;;19.20;16.90;;;;;;;11.30;72.92;97219.48;108858;1250;96040;-72
2023/05/07 00:03:23;;;;;;;20.60;17.90;;;;;;;11.27;72.97;97218.63;108903;1251;103451;-73
2023/05/07 00:05:52;;;;;;;21.10;17.90;;;;;;;11.29;72.95;97218.73;108869;1250;101255;-73
2023/05/07 00:08:21;;;;;;;20.80;17.70;;;;;;;11.34;73.05;97223.35;108890;1250;98566;-73
2023/05/07 00:10:49;;;;;;;24.00;18.20;;;;;;;11.37;73.21;97225.65;108552;1251;95909;-73
2023/05/07 00:13:18;;;;;;;20.80;17.80;;;;;;;11.37;73.27;97224.81;108535;1253;96046;-73
2023/05/07 00:15:46;;;;;;;21.50;17.90;;;;;;;11.34;73.21;97223.11;108743;1252;103850;-77
2023/05/07 00:18:14;;;;;;;23.30;17.40;;;;;;;11.34;73.22;97224.20;108684;1252;101475;-73
2023/05/07 00:20:42;;;;;;;20.80;17.60;;;;;;;11.30;73.07;97226.59;108696;1252;100002;-73
2023/05/07 00:23:10;;;;;;;21.20;17.80;;;;;;;11.29;73.08;97229.00;108662;1253;95905;-75
2023/05/07 00:25:39;;;;;;;19.30;16.70;;;;;;;11.31;73.13;97226.91;108672;1252;96324;-73
2023/05/07 00:28:07;;;;;;;21.40;17.80;;;;;;;11.33;73.15;97227.86;108730;1253;103694;-72
2023/05/07 00:30:35;;;;;;;19.60;17.10;;;;;;;11.37;73.10;97227.15;108737;1252;101278;-74
2023/05/07 00:33:03;;;;;;;21.70;17.00;;;;;;;11.37;73.23;97223.98;108655;1253;100155;-73
2023/05/07 00:35:31;;;;;;;22.20;17.90;;;;;;;11.35;73.23;97225.45;108618;1251;95675;-73
2023/05/07 00:37:59;;;;;;;19.40;16.20;;;;;;;11.28;73.19;97226.69;108694;1253;96011;-72
2023/05/07 00:40:27;;;;;;;21.40;15.90;;;;;;;11.23;73.21;97225.77;108735;1252;103318;-73
2023/05/07 00:42:57;;;;;;;19.70;15.30;;;;;;;11.19;73.33;97230.13;108735;1252;101370;-73
2023/05/07 00:45:29;;;;;;;20.40;17.00;;;;;;;11.18;73.39;97230.38;108546;1252;98965;-72
2023/05/07 00:48:01;;;;;;;21.10;16.50;;;;;;;11.17;73.44;97229.71;108680;1253;95855;-73
2023/05/07 00:50:30;;;;;;;21.80;17.40;;;;;;;11.18;73.35;97228.50;108672;1252;95637;-73
2023/05/07 00:52:59;;;;;;;21.20;17.90;;;;;;;11.20;73.23;97230.98;108405;1253;103418;-79
2023/05/07 00:55:28;;;;;;;20.10;16.90;;;;;;;11.18;73.16;97235.79;108738;1253;101527;-72
2023/05/07 00:57:56;;;;;;;20.20;16.80;;;;;;;11.18;73.26;97231.96;108680;1252;100012;-73
2023/05/07 01:00:25;;;;;;;23.30;17.00;;;;;;;11.21;73.26;97235.19;108669;1252;95884;-73
2023/05/07 01:02:53;;;;;;;21.30;17.30;;;;;;;11.24;73.21;97233.00;108580;1252;96031;-72
2023/05/07 01:05:24;;;;;;;19.30;16.40;;;;;;;11.25;73.12;97231.89;108688;1252;103364;-72
2023/05/07 01:07:54;;;;;;;21.80;17.10;;;;;;;11.24;73.12;97236.82;108544;1253;101395;-74
2023/05/07 01:10:23;;;;;;;20.70;16.90;;;;;;;11.22;73.09;97240.08;108684;1252;99944;-72
2023/05/07 01:12:51;;;;;;;22.60;18.60;;;;;;;11.15;73.09;97242.08;108816;1250;95564;-74
2023/05/07 01:15:20;;;;;;;22.40;18.60;;;;;;;11.05;73.09;97246.09;108886;1250;96005;-73
2023/05/07 01:17:48;;;;;;;22.10;18.50;;;;;;;10.98;73.37;97243.27;108604;1251;104720;-73
2023/05/07 01:20:16;;;;;;;22.10;18.20;;;;;;;10.94;73.50;97239.61;108814;1250;101503;-72
2023/05/07 01:22:44;;;;;;;22.10;17.50;;;;;;;10.89;73.74;97234.56;108598;1254;98917;-71
2023/05/07 01:25:13;;;;;;;22.90;17.70;;;;;;;10.83;73.74;97239.60;108792;1250;95547;-72
2023/05/07 01:27:41;;;;;;;22.30;18.00;;;;;;;10.77;73.81;97242.41;108634;1250;96124;-72
2023/05/07 01:30:13;;;;;;;24.70;19.20;;;;;;;10.73;73.96;97244.27;108900;1250;102066;-72
2023/05/07 01:32:52;;;;;;;22.60;18.70;;;;;;;10.69;73.95;97248.35;108877;1250;100051;-74
2023/05/07 01:35:23;;;;;;;24.50;19.10;;;;;;;10.65;74.16;97247.54;108830;1250;99918;-76
2023/05/07 01:37:52;;;;;;;27.50;20.50;;;;;;;10.60;74.26;97246.77;108779;1251;95638;-74
2023/05/07 01:40:20;;;;;;;28.60;20.20;;;;;;;10.57;74.50;97250.23;108853;1251;96037;-75
2023/05/07 01:42:49;;;;;;;29.40;21.40;;;;;;;10.56;74.76;97250.78;108870;1250;103492;-73
2023/05/07 01:45:17;;;;;;;25.30;20.70;;;;;;;10.56;74.78;97250.82;108927;1250;101330;-73
2023/05/07 01:47:45;;;;;;;30.20;23.10;;;;;;;10.57;74.93;97255.09;108829;1250;98964;-74
2023/05/07 01:50:17;;;;;;;29.70;20.90;;;;;;;10.55;74.85;97255.10;108581;1251;95667;-73
2023/05/07 01:52:46;;;;;;;26.30;21.40;;;;;;;10.53;74.87;97256.34;108837;1250;95583;-73
2023/05/07 01:55:14;;;;;;;29.80;22.60;;;;;;;10.55;74.87;97253.02;108913;1250;103348;-73
2023/05/07 01:57:42;;;;;;;31.70;22.40;;;;;;;10.57;74.96;97254.35;108894;1250;100274;-73
2023/05/07 02:00:11;;;;;;;28.20;21.70;;;;;;;10.59;74.88;97252.52;108860;1250;100136;-71
2023/05/07 02:02:39;;;;;;;28.20;21.90;;;;;;;10.63;74.80;97251.36;108743;1250;95873;-73
2023/05/07 02:05:07;;;;;;;29.60;21.10;;;;;;;10.68;74.79;97247.11;108892;1250;96030;-76
2023/05/07 02:07:36;;;;;;;27.40;20.30;;;;;;;10.69;74.76;97246.23;108671;1250;103545;-73
2023/05/07 02:10:04;;;;;;;25.60;20.40;;;;;;;10.64;74.75;97243.39;108353;1250;110440;-75
2023/05/07 02:12:33;;;;;;;27.50;20.10;;;;;;;10.58;74.59;97243.88;108910;1250;99924;-74
2023/05/07 02:15:01;;;;;;;28.60;19.90;;;;;;;10.58;74.65;97243.47;108816;1250;95568;-73
2023/05/07 02:17:31;;;;;;;28.60;21.00;;;;;;;10.59;74.72;97241.60;108841;1250;95990;-73
2023/05/07 02:20:00;;;;;;;23.80;19.10;;;;;;;10.57;74.65;97244.39;108918;1250;103904;-74
2023/05/07 02:22:28;;;;;;;23.60;18.90;;;;;;;10.56;74.76;97244.80;108888;1250;101344;-76
2023/05/07 02:24:56;;;;;;;23.40;19.30;;;;;;;10.55;74.77;97245.84;108828;1250;99674;-73
2023/05/07 02:27:24;;;;;;;23.70;17.80;;;;;;;10.57;74.67;97246.91;108786;1251;95636;-76
2023/05/07 02:29:52;;;;;;;24.60;18.80;;;;;;;10.57;74.63;97247.83;108824;1250;95990;-74
2023/05/07 02:32:21;;;;;;;25.30;18.90;;;;;;;10.55;74.68;97244.68;108576;1250;103545;-73
2023/05/07 02:34:52;;;;;;;23.50;18.30;;;;;;;10.53;74.80;97244.89;108673;1250;101321;-73
2023/05/07 02:37:20;;;;;;;27.20;19.00;;;;;;;10.55;74.74;97246.92;108869;1250;98764;-76
2023/05/07 02:39:48;;;;;;;23.30;18.30;;;;;;;10.56;74.80;97251.08;108864;1250;95585;-73
2023/05/07 02:42:16;;;;;;;22.40;16.80;;;;;;;10.57;74.80;97253.52;108839;1250;96103;-73
2023/05/07 02:44:44;;;;;;;24.10;18.00;;;;;;;10.57;74.75;97250.27;108873;1250;103459;-73
2023/05/07 02:47:16;;;;;;;21.10;16.40;;;;;;;10.57;74.58;97251.23;108941;1250;100302;-75
2023/05/07 02:49:44;;;;;;;21.20;16.90;;;;;;;10.58;74.59;97246.75;108838;1250;99524;-71
2023/05/07 02:52:12;;;;;;;20.10;15.20;;;;;;;10.61;74.45;97247.98;108890;1250;95541;-72
2023/05/07 02:54:40;;;;;;;19.50;15.30;;;;;;;10.61;74.30;97252.48;108837;1250;95596;-75
2023/05/07 02:57:09;;;;;;;20.00;15.10;;;;;;;10.60;74.39;97256.30;108848;1250;103477;-73
2023/05/07 02:59:37;;;;;;;20.20;15.90;;;;;;;10.61;74.51;97258.20;108855;1251;101539;-75
2023/05/07 03:02:05;;;;;;;19.90;14.90;;;;;;;10.63;74.50;97256.05;108768;1251;101371;-73
2023/05/07 03:04:33;;;;;;;18.40;14.50;;;;;;;10.65;74.28;97255.54;108794;1251;95831;-75
2023/05/07 03:07:02;;;;;;;18.40;14.20;;;;;;;10.65;74.12;97256.30;108640;1251;96171;-76
2023/05/07 03:09:30;;;;;;;17.60;14.10;;;;;;;10.67;73.91;97262.60;108567;1250;102634;-77
2023/05/07 03:11:58;;;;;;;17.70;14.20;;;;;;;10.69;74.01;97256.91;108834;1251;101287;-72
2023/05/07 03:14:26;;;;;;;17.60;14.90;;;;;;;10.72;73.97;97259.67;108777;1250;100196;-74
2023/05/07 03:16:55;;;;;;;18.60;13.40;;;;;;;10.73;73.82;97261.46;108560;1251;95656;-76
2023/05/07 03:19:23;;;;;;;18.50;14.70;;;;;;;10.70;73.86;97263.30;108786;1252;96010;-76
2023/05/07 03:21:51;;;;;;;18.50;14.50;;;;;;;10.71;73.86;97268.77;108546;1250;102652;-76
2023/05/07 03:24:19;;;;;;;17.80;14.20;;;;;;;10.72;73.73;97272.97;108809;1250;101554;-73
2023/05/07 03:26:48;;;;;;;15.70;13.80;;;;;;;10.75;73.73;97274.80;108832;1251;99475;-73
2023/05/07 03:29:16;;;;;;;18.50;14.70;;;;;;;10.78;73.64;97273.33;108816;1250;95992;-74
2023/05/07 03:31:44;;;;;;;21.80;14.10;;;;;;;10.81;73.56;97276.86;108653;1251;96379;-74
2023/05/07 03:34:13;;;;;;;20.20;15.20;;;;;;;10.85;73.48;97275.64;108761;1251;103650;-73
2023/05/07 03:36:41;;;;;;;19.00;14.10;;;;;;;10.85;73.46;97276.02;108601;1250;101253;-74
2023/05/07 03:39:09;;;;;;;17.00;14.20;;;;;;;10.85;73.25;97274.61;108810;1250;99939;-71
2023/05/07 03:41:37;;;;;;;16.90;13.90;;;;;;;10.86;73.15;97278.17;108811;1250;95673;-74
2023/05/07 03:44:05;;;;;;;17.90;14.50;;;;;;;10.83;73.27;97283.46;108785;1250;96044;-72
2023/05/07 03:46:35;;;;;;;15.00;13.40;;;;;;;10.75;73.33;97284.08;108628;1250;103297;-72
2023/05/07 03:49:03;;;;;;;17.50;14.20;;;;;;;10.70;73.33;97283.94;108915;1250;101240;-73
2023/05/07 03:51:31;;;;;;;17.00;14.30;;;;;;;10.67;73.45;97290.05;108803;1250;99790;-74
2023/05/07 03:54:00;;;;;;;18.00;14.40;;;;;;;10.60;73.42;97291.54;108602;1250;95556;-75
2023/05/07 03:56:28;;;;;;;16.90;14.30;;;;;;;10.54;73.42;97291.42;108889;1250;96058;-73
2023/05/07 03:58:56;;;;;;;18.50;15.40;;;;;;;10.48;73.56;97293.67;108683;1250;111970;-73
2023/05/07 04:01:24;;;;;;;16.90;15.00;;;;;;;10.46;73.82;97298.16;108919;1250;101585;-76
2023/05/07 04:03:53;;;;;;;17.00;15.20;;;;;;;10.46;73.91;97300.31;108932;1250;101222;-72
2023/05/07 04:06:21;;;;;;;18.20;14.90;;;;;;;10.48;74.02;97298.70;108867;1250;95555;-74
2023/05/07 04:08:49;;;;;;;18.40;14.90;;;;;;;10.49;74.13;97295.59;108625;1250;96020;-72
2023/05/07 04:11:17;;;;;;;19.20;15.50;;;;;;;10.51;74.14;97299.13;108854;1250;104562;-76
2023/05/07 04:13:46;;;;;;;20.40;15.80;;;;;;;10.57;74.06;97302.81;108894;1250;101320;-71
2023/05/07 04:16:14;;;;;;;21.30;17.40;;;;;;;10.64;73.86;97305.55;108890;1250;98969;-77
2023/05/07 04:18:42;;;;;;;21.50;17.20;;;;;;;10.70;73.77;97304.70;108835;1250;95607;-73
2023/05/07 04:21:22;;;;;;;20.30;17.00;;;;;;;10.76;73.70;97308.08;108873;1250;96073;-76
2023/05/07 04:23:50;;;;;;;20.30;16.90;;;;;;;10.81;73.60;97311.46;108660;1250;103107;-73
2023/05/07 04:26:18;;;;;;;21.90;17.20;;;;;;;10.84;73.56;97313.98;108488;1250;101271;-73
2023/05/07 04:28:46;;;;;;;22.60;18.20;;;;;;;10.85;73.56;97312.74;108846;1250;99923;-74
2023/05/07 04:31:15;;;;;;;23.30;18.70;;;;;;;10.86;73.56;97314.83;108829;1250;95684;-72
2023/05/07 04:33:43;;;;;;;24.20;19.90;;;;;;;10.87;73.50;97313.34;108579;1250;96131;-76
2023/05/07 04:36:11;;;;;;;26.70;20.10;;;;;;;10.89;73.50;97317.89;108925;1250;103620;-72
2023/05/07 04:38:40;;;;;;;26.00;21.50;;;;;;;10.91;73.57;97320.55;108950;1250;100276;-72
2023/05/07 04:41:11;;;;;;;25.50;21.70;;;;;;;10.92;73.50;97322.84;108824;1250;98581;-73
2023/05/07 04:43:39;;;;;;;27.90;22.50;;;;;;;10.94;73.50;97326.16;108865;1250;95619;-75
2023/05/07 04:46:08;;;;;;;27.80;23.20;;;;;;;10.98;73.52;97326.02;108703;1250;95982;-72
2023/05/07 04:48:36;;;;;;;28.90;23.20;;;;;;;10.97;73.28;97329.51;108896;1250;104251;-75
2023/05/07 04:51:04;;;;;;;28.60;22.50;;;;;;;10.95;73.31;97333.13;108909;1250;100374;-73
2023/05/07 04:53:32;;;;;;;29.90;24.20;;;;;;;10.95;73.37;97335.41;108634;1250;99750;-73
2023/05/07 04:56:01;;;;;;;28.50;22.20;;;;;;;10.96;73.21;97336.16;108871;1250;95932;-72
2023/05/07 04:58:31;;;;;;;25.70;22.40;;;;;;;10.96;73.10;97334.66;108602;1251;97544;-73
2023/05/07 05:01:00;;;;;;;31.70;23.60;;;;;;;10.92;73.10;97338.66;108884;1250;103530;-74
2023/05/07 05:03:28;;;;;;;27.50;22.20;;;;;;;10.87;73.26;97335.45;108848;1250;100314;-72
2023/05/07 05:05:59;;;;;;;26.40;21.70;;;;;;;10.85;73.23;97339.00;108820;1250;99861;-72
2023/05/07 05:08:27;;;;;;;28.50;22.10;;;;;;;10.87;73.09;97342.55;108861;1250;95586;-72
2023/05/07 05:10:55;;;;;;;29.70;22.90;;;;;;;10.86;73.10;97343.30;108627;1251;96040;-74
2023/05/07 05:13:24;;;;;;;26.70;21.60;;;;;;;10.87;73.01;97349.27;108919;1250;102374;-76
2023/05/07 05:15:52;;;;;;;30.30;22.30;;;;;;;10.89;72.92;97350.39;108824;1250;101201;-73
2023/05/07 05:18:20;;;;;;;28.10;21.40;;;;;;;10.82;73.03;97349.51;108887;1250;99619;-73
2023/05/07 05:20:48;;;;;;;25.30;21.50;;;;;;;10.78;73.03;97356.83;108861;1250;95632;-77
2023/05/07 05:23:17;;;;;;;22.80;19.50;;;;;;;10.75;73.32;97361.79;108859;1250;95992;-72
2023/05/07 05:25:45;;;;;;;22.00;17.60;;;;;;;10.65;73.43;97359.26;108863;1250;103203;-76
2023/05/07 05:28:13;;;;;;;22.20;18.30;;;;;;;10.59;73.41;97361.19;108891;1250;101229;-73
2023/05/07 05:30:41;;;;;;;21.70;17.30;;;;;;;10.60;73.48;97364.52;108831;1250;99735;-72
2023/05/07 05:33:10;;;;;;;21.90;17.00;;;;;;;10.62;73.48;97369.48;108816;1250;95984;-71
2023/05/07 05:35:38;;;;;;;21.20;15.30;;;;;;;10.55;73.44;97369.83;108909;1250;95975;-71
2023/05/07 05:38:06;;;;;;;18.40;15.00;;;;;;;10.56;73.52;97372.66;108663;1251;103307;-72
2023/05/07 05:40:34;;;;;;;18.90;14.30;;;;;;;10.59;73.47;97375.05;108937;1250;101491;-74
2023/05/07 05:43:02;;;;;;;18.90;14.00;;;;;;;10.63;73.44;97378.86;108563;1251;98755;-73
2023/05/07 05:45:30;;;;;;;18.90;14.70;;;;;;;10.67;73.38;97380.27;108861;1250;95532;-75
2023/05/07 05:47:58;;;;;;;18.30;14.90;;;;;;;10.70;73.44;97380.71;108706;1254;96130;-74
2023/05/07 05:50:26;;;;;;;19.80;13.90;;;;;;;10.71;73.44;97384.58;108869;1250;103363;-76
2023/05/07 05:52:54;;;;;;;19.30;14.50;;;;;;;10.66;73.52;97388.32;108901;1250;101354;-72
2023/05/07 05:55:23;;;;;;;19.00;15.10;;;;;;;10.63;73.56;97388.14;108919;1250;100143;-72
2023/05/07 05:57:51;;;;;;;20.50;15.90;;;;;;;10.62;73.68;97391.86;108834;1250;95559;-75
2023/05/07 06:00:22;;;;;;;18.60;13.10;;;;;;;10.63;73.67;97392.90;108885;1250;95996;-74
2023/05/07 06:02:50;;;;;;;18.80;12.90;;;;;;;10.62;73.59;97389.59;108928;1250;103059;-73
2023/05/07 06:05:19;;;;;;;18.80;13.80;;;;;;;10.61;73.65;97389.52;108884;1250;101243;-72
2023/05/07 06:07:47;;;;;;;21.00;13.20;;;;;;;10.59;73.67;97396.44;108589;1250;99881;-73
2023/05/07 06:10:15;;;;;;;16.80;13.20;;;;;;;10.56;73.65;97399.05;108598;1250;95677;-73
2023/05/07 06:12:43;;;;;;;13.90;11.10;;;;;;;10.52;73.77;97399.94;108871;1250;96078;-73
2023/05/07 06:15:11;;;;;;;17.40;11.60;;;;;;;10.51;73.74;97400.64;108598;1250;103724;-76
2023/05/07 06:17:39;;;;;;;16.70;12.00;;;;;;;10.52;73.79;97403.04;108894;1250;101506;-76
2023/05/07 06:20:08;;;;;;;16.50;11.70;;;;;;;10.53;73.78;97405.54;108860;1250;100292;-71
2023/05/07 06:22:36;;;;;;;14.90;11.00;;;;;;;10.54;73.79;97408.15;108925;1250;95536;-75
2023/05/07 06:25:04;;;;;;;13.20;10.80;;;;;;;10.52;73.73;97411.02;108887;1250;96006;-72
2023/05/07 06:27:32;;;;;;;14.60;10.70;;;;;;;10.48;73.74;97413.29;108887;1250;103712;-72
2023/05/07 06:30:00;;;;;;;14.40;11.10;;;;;;;10.45;73.95;97414.73;108921;1250;101492;-73
2023/05/07 06:32:28;;;;;;;14.70;10.50;;;;;;;10.40;73.96;97413.84;108825;1250;99674;-72
2023/05/07 06:34:56;;;;;;;14.50;10.70;;;;;;;10.36;74.13;97418.91;108885;1250;95568;-76
2023/05/07 06:37:24;;;;;;;13.90;10.30;;;;;;;10.33;74.36;97419.45;108892;1250;96001;-73
2023/05/07 06:39:52;;;;;;;14.60;10.10;;;;;;;10.32;74.37;97421.40;108940;1250;103192;-73
2023/05/07 06:42:20;;;;;;;14.00;10.40;;;;;;;10.33;74.58;97420.93;108776;1250;101330;-77
2023/05/07 06:44:48;;;;;;;14.10;9.50;;;;;;;10.34;74.54;97416.83;108927;1251;99792;-74
2023/05/07 06:47:17;;;;;;;13.30;9.90;;;;;;;10.36;74.59;97422.06;108845;1250;95767;-73
2023/05/07 06:49:45;;;;;;;10.00;8.70;;;;;;;10.39;74.62;97424.48;108895;1250;96110;-73
2023/05/07 06:52:13;;;;;;;14.90;10.00;;;;;;;10.42;74.72;97425.31;108861;1250;103671;-73
2023/05/07 06:54:41;;;;;;;11.60;8.90;;;;;;;10.44;74.74;97425.33;108619;1250;101261;-72
2023/05/07 06:57:09;;;;;;;11.60;8.60;;;;;;;10.45;74.75;97428.39;108642;1250;99927;-72
2023/05/07 06:59:37;;;;;;;12.70;8.60;;;;;;;10.44;74.77;97431.02;108895;1250;96065;-77
2023/05/07 07:02:05;;;;;;;10.10;8.00;;;;;;;10.44;74.70;97432.80;108599;1251;96649;-75
2023/05/07 07:04:33;;;;;;;10.30;7.90;;;;;;;10.45;74.65;97434.75;108604;1250;104671;-73
2023/05/07 07:07:01;;;;;;;8.90;7.10;;;;;;;10.42;74.51;97438.11;108881;1250;100301;-73
2023/05/07 07:09:29;;;;;;;10.60;7.60;;;;;;;10.39;74.68;97438.37;108845;1250;98849;-74
2023/05/07 07:11:57;;;;;;;7.60;6.50;;;;;;;10.34;74.75;97436.46;108832;1250;95692;-74
2023/05/07 07:14:25;;;;;;;7.60;6.70;;;;;;;10.31;74.94;97435.42;108744;1250;96010;-78
2023/05/07 07:16:53;;;;;;;9.20;6.50;;;;;;;10.35;75.08;97437.05;108900;1251;103545;-72
2023/05/07 07:19:22;;;;;;;8.00;6.70;;;;;;;10.40;75.04;97443.34;108862;1250;101429;-72
2023/05/07 07:21:50;;;;;;;9.30;6.30;;;;;;;10.44;75.10;97444.17;108458;1256;100983;-73
2023/05/07 07:24:20;;;;;;;7.60;6.10;;;;;;;10.47;74.98;97448.66;108463;1256;95971;-73
2023/05/07 07:26:48;;;;;;;5.50;4.00;;;;;;;10.45;75.01;97456.45;108462;1255;96058;-73
2023/05/07 07:29:18;;;;;;;4.90;3.70;;;;;;;10.38;74.74;97458.83;108475;1255;103651;-73
2023/05/07 07:31:46;;;;;;;5.20;4.30;;;;;;;10.31;74.56;97466.84;108337;1256;100365;-71
2023/05/07 07:34:14;;;;;;;4.80;2.80;;;;;;;10.22;74.46;97466.52;108331;1256;98898;-73
2023/05/07 07:36:42;;;;;;;3.10;2.80;;;;;;;10.16;74.59;97470.09;108459;1255;96140;-74
2023/05/07 07:39:10;;;;;;;3.60;3.30;;;;;;;10.17;74.69;97473.29;108345;1256;96172;-74
2023/05/07 07:41:38;;;;;;;3.60;3.10;;;;;;;10.13;74.58;97473.63;108417;1256;103838;-72
2023/05/07 07:44:07;;;;;;;3.80;3.10;;;;;;;10.11;74.56;97479.69;108438;1256;102016;-73
2023/05/07 07:46:35;;;;;;;4.30;3.00;;;;;;;10.11;74.53;97479.31;108401;1256;100011;-76
2023/05/07 07:49:03;;;;;;;3.00;2.50;;;;;;;10.08;74.35;97476.02;108418;1255;95697;-72
2023/05/07 07:51:31;;;;;;;6.50;4.30;;;;;;;10.12;74.49;97483.00;108429;1255;96105;-72
2023/05/07 07:54:02;;;;;;;2.10;1.60;;;;;;;10.13;74.08;97488.23;108706;1250;103274;-73
2023/05/07 07:56:31;;;;;;;1.90;1.70;;;;;;;10.05;73.68;97490.50;108899;1251;101338;-73
2023/05/07 07:59:00;;;;;;;1.90;1.60;;;;;;;9.92;73.25;97490.11;108793;1249;100040;-72
2023/05/07 08:01:34;;;;;;;2.40;2.00;;;;;;;9.78;73.47;97494.31;108863;1249;95584;-73
2023/05/07 08:04:03;;;;;;;1.70;1.40;;;;;;;9.70;73.52;97497.64;108802;1252;96099;-72
2023/05/07 08:06:32;;;;;;;3.00;1.50;;;;;;;9.64;73.40;97497.64;108826;1250;103609;-73
2023/05/07 08:09:05;;;;;;;2.20;1.40;;;;;;;9.59;73.54;97498.66;108902;1251;101378;-73
2023/05/07 08:11:41;;;;;;;1.50;1.40;;;;;;;9.58;73.64;97502.89;108752;1250;98798;-76
2023/05/07 08:14:10;;;;;;;1.60;1.50;;;;;;;9.56;73.56;97507.14;108771;1250;95639;-72
2023/05/07 08:16:38;;;;;;;1.40;1.30;;;;;;;9.52;73.41;97509.27;108892;1250;96011;-72
2023/05/07 08:19:06;;;;;;;1.50;1.40;;;;;;;9.51;73.51;97508.60;108879;1250;102669;-76
2023/05/07 08:21:58;;;;;;;3.30;2.10;;;;;;;9.49;73.45;97513.19;108868;1250;100182;-76
2023/05/07 08:24:29;;;;;;;2.10;1.20;;;;;;;9.47;73.51;97514.17;108153;1259;99374;-72
2023/05/07 08:26:59;;;;;;;1.30;1.20;;;;;;;9.46;73.63;97514.91;108199;1258;95630;-74
2023/05/07 08:29:29;;;;;;;1.40;1.20;;;;;;;9.46;73.62;97515.08;108244;1259;96265;-77
2023/05/07 08:32:05;;;;;;;1.30;1.10;;;;;;;9.47;73.67;97516.73;108050;1258;103166;-73
2023/05/07 08:34:37;;;;;;;2.00;1.30;;;;;;;9.48;73.59;97521.30;108170;1259;101166;-73
2023/05/07 08:37:07;;;;;;;2.10;1.50;;;;;;;9.47;73.52;97524.70;108217;1258;99699;-72
2023/05/07 08:39:41;;;;;;;1.40;1.30;;;;;;;9.44;73.64;97528.48;108222;1258;95613;-74
2023/05/07 08:42:18;;;;;;;1.90;1.40;;;;;;;9.42;73.54;97530.73;108045;1261;96195;-73
2023/05/07 08:44:56;;;;;;;1.00;0.90;;;;;;;9.41;73.65;97533.71;108026;1261;103614;-75
2023/05/07 08:47:35;;;;;;;0.80;0.60;;;;;;;9.40;73.77;97537.82;108046;1261;101521;-78
2023/05/07 08:50:03;;;;;;;1.00;0.50;;;;;;;9.42;73.71;97540.96;108029;1261;99001;-73
2023/05/07 08:52:32;;;;;;;0.70;0.70;;;;;;;9.38;73.48;97541.62;108012;1261;95672;-76
2023/05/07 08:55:04;;;;;;;0.90;0.90;;;;;;;9.32;73.35;97543.87;108047;1261;96080;-73
2023/05/07 08:57:33;;;;;;;1.60;1.40;;;;;;;9.23;73.18;97544.93;107987;1261;111712;-73
2023/05/07 09:00:10;;;;;;;1.10;1.00;;;;;;;9.23;73.48;97546.35;107922;1261;101474;-73
2023/05/07 09:02:50;;;;;;;2.00;1.10;;;;;;;9.22;73.49;97550.06;108472;1253;99963;-76
2023/05/07 09:05:35;;;;;;;1.50;1.30;;;;;;;9.20;73.47;97547.23;108503;1253;95624;-74
2023/05/07 09:08:04;;;;;;;0.70;0.70;;;;;;;9.18;73.51;97553.98;108701;1253;96051;-73
2023/05/07 09:10:34;;;;;;;1.50;1.10;;;;;;;9.14;73.29;97558.48;108457;1253;103321;-73
2023/05/07 09:13:04;;;;;;;2.10;1.80;;;;;;;9.08;73.18;97562.91;108709;1251;101666;-73
2023/05/07 09:15:32;;;;;;;1.70;1.60;;;;;;;9.03;73.26;97571.89;108769;1251;99694;-73
2023/05/07 09:18:02;;;;;;;2.10;1.90;;;;;;;9.01;73.35;97579.13;108669;1251;95658;-75
2023/05/07 09:20:33;;;;;;;1.50;1.40;;;;;;;8.96;73.24;97581.07;108921;1250;96070;-73
2023/05/07 09:23:01;;;;;;;1.70;1.50;;;;;;;8.89;73.05;97587.60;108926;1250;103532;-73
2023/05/07 09:25:33;;;;;;;1.20;1.10;;;;;;;8.82;73.05;97591.70;108918;1251;101259;-74
2023/05/07 09:28:07;;;;;;;2.60;1.90;;;;;;;8.79;73.19;97594.91;108542;1250;491612;-72
2023/05/07 09:30:35;;;;;;;2.10;1.50;;;;;;;8.76;73.22;97603.66;108615;1253;95961;-73
2023/05/07 09:33:04;;;;;;;1.40;1.10;;;;;;;8.70;73.21;97606.91;108956;1250;95994;-72
2023/05/07 09:35:35;;;;;;;2.20;1.20;;;;;;;8.66;73.08;97606.55;108650;1251;103283;-74
2023/05/07 09:38:03;;;;;;;1.30;1.20;;;;;;;8.63;73.21;97610.97;108836;1250;101391;-73
2023/05/07 09:40:36;;;;;;;1.80;1.10;;;;;;;8.65;73.50;97612.89;108887;1251;99617;-73
2023/05/07 09:43:14;;;;;;;1.50;1.40;;;;;;;8.69;73.36;97616.73;108538;1254;95683;-74
2023/05/07 09:45:43;;;;;;;1.00;1.00;;;;;;;8.75;73.53;97616.32;108535;1256;96147;-73
2023/05/07 09:48:14;;;;;;;3.10;2.10;;;;;;;8.83;73.66;97615.27;108312;1256;111853;-76
2023/05/07 09:50:50;;;;;;;6.60;3.90;;;;;;;8.90;73.77;97620.26;108484;1255;108907;-73
2023/05/07 09:53:21;;;;;;;4.10;2.60;;;;;;;8.98;73.72;97627.33;108433;1254;99875;-72
2023/05/07 09:55:49;;;;;;;1.70;1.40;;;;;;;9.05;73.69;97630.73;108523;1254;95738;-72
2023/05/07 09:58:20;;;;;;;3.90;1.90;;;;;;;9.09;73.39;97633.44;108426;1256;96045;-73
2023/05/07 10:00:49;;;;;;;1.90;1.40;;;;;;;9.15;73.44;97633.48;108556;1254;103158;-76
2023/05/07 10:03:20;;;;;;;1.80;1.40;;;;;;;9.21;73.46;97634.56;108565;1253;100490;-73
2023/05/07 10:05:52;;;;;;;2.10;1.50;;;;;;;9.26;73.37;97634.17;108561;1254;99981;-73
2023/05/07 10:08:21;;;;;;;4.40;1.50;;;;;;;9.30;73.33;97635.73;108517;1254;96028;-76
2023/05/07 10:10:53;;;;;;;3.10;1.80;;;;;;;9.35;73.29;97639.91;108549;1254;96104;-73
2023/05/07 10:13:22;;;;;;;1.90;1.60;;;;;;;9.38;73.16;97637.08;108210;1258;104563;-73
2023/05/07 10:15:52;;;;;;;1.30;1.20;;;;;;;9.44;73.18;97635.95;108388;1255;101389;-73
2023/05/07 10:18:24;;;;;;;1.90;1.40;;;;;;;9.49;72.95;97632.54;108333;1255;100357;-72
2023/05/07 10:20:57;;;;;;;2.00;1.60;;;;;;;9.54;72.88;97633.67;108227;1255;95622;-72
2023/05/07 10:23:28;;;;;;;2.90;2.00;;;;;;;9.60;72.93;97641.34;108396;1255;96415;-73
2023/05/07 10:25:57;;;;;;;7.70;2.70;;;;;;;9.63;72.38;97644.27;108404;1255;103791;-73
2023/05/07 10:28:28;;;;;;;3.70;3.00;;;;;;;9.61;72.16;97641.89;108412;1256;101302;-76
2023/05/07 10:31:22;;;;;;;1.90;1.60;;;;;;;9.58;71.97;97644.43;108272;1255;99893;-72
2023/05/07 10:33:54;;;;;;;1.80;1.70;;;;;;;9.46;71.75;97654.14;108105;1260;96012;-73
2023/05/07 10:36:23;;;;;;;3.20;2.00;;;;;;;9.37;71.79;97655.14;108119;1260;95681;-75
2023/05/07 10:38:51;;;;;;;2.40;1.90;;;;;;;9.30;71.83;97659.77;108053;1260;103817;-73
2023/05/07 10:41:21;;;;;;;2.30;1.80;;;;;;;9.24;71.82;97663.16;108126;1262;100184;-73
2023/05/07 10:43:53;;;;;;;2.50;2.30;;;;;;;9.20;72.10;97664.17;107981;1259;100035;-74
2023/05/07 10:46:24;;;;;;;3.50;2.80;;;;;;;9.19;72.23;97670.13;108238;1258;95576;-77
2023/05/07 10:49:08;;;;;;;2.70;2.50;;;;;;;9.17;72.30;97667.64;108243;1257;96197;-73
2023/05/07 10:51:37;;;;;;;4.60;2.20;;;;;;;9.13;72.09;97669.77;108212;1259;103136;-73
2023/05/07 10:54:18;;;;;;;2.80;2.50;;;;;;;9.10;72.12;97674.52;108231;1257;101278;-74
2023/05/07 10:56:47;;;;;;;3.40;2.80;;;;;;;9.10;72.34;97674.33;108218;1257;99973;-73
2023/05/07 10:59:41;;;;;;;2.50;2.30;;;;;;;9.11;72.38;97679.15;108207;1257;95825;-74
2023/05/07 11:02:14;;;;;;;2.50;2.30;;;;;;;9.10;72.26;97685.60;108298;1257;96516;-76
2023/05/07 11:05:21;;;;;;;2.70;2.20;;;;;;;9.12;72.14;97683.55;108269;1257;102636;-74
2023/05/07 11:08:17;;;;;;;2.10;1.80;;;;;;;9.09;71.97;97683.36;108184;1257;101357;-77
2023/05/07 11:11:23;;;;;;;2.40;1.90;;;;;;;9.08;72.20;97684.02;107860;1259;100064;-73
2023/05/07 11:13:51;;;;;;;1.70;1.60;;;;;;;9.09;72.18;97683.89;107930;1261;95757;-73
2023/05/07 11:16:24;;;;;;;2.20;2.00;;;;;;;9.09;72.09;97682.72;108027;1261;96137;-73
2023/05/07 11:18:57;;;;;;;2.90;2.40;;;;;;;9.05;72.01;97682.34;107920;1261;103595;-73
2023/05/07 11:21:38;;;;;;;2.20;1.80;;;;;;;9.06;72.21;97679.31;108002;1261;101754;-73
2023/05/07 11:24:07;;;;;;;2.30;1.90;;;;;;;9.12;72.18;97682.84;107885;1261;99603;-74
2023/05/07 11:26:51;;;;;;;1.70;1.60;;;;;;;9.16;72.05;97681.84;108050;1262;95673;-73